createdAt,value
2023-11-23T00:00:28.190Z,1.10
2023-11-23T00:02:57.669Z,1.20
2023-11-23T00:05:25.809Z,1.20
2023-11-23T00:07:54.250Z,1.27
2023-11-23T00:10:22.302Z,1.08
2023-11-23T00:12:50.394Z,1.30
2023-11-23T00:15:18.980Z,1.20
2023-11-23T00:17:47.326Z,1.23
2023-11-23T00:20:16.872Z,1.00
2023-11-23T00:22:45.075Z,1.40
2023-11-23T00:25:15.365Z,1.30
2023-11-23T00:27:43.634Z,1.40
2023-11-23T00:30:12.978Z,1.23
2023-11-23T00:32:41.270Z,1.25
2023-11-23T00:35:09.929Z,1.77
2023-11-23T00:37:39.393Z,1.27
2023-11-23T00:40:08.484Z,1.23
2023-11-23T00:42:36.606Z,1.20
2023-11-23T00:45:06.053Z,1.23
2023-11-23T00:47:34.161Z,1.50
2023-11-23T00:50:03.411Z,1.50
2023-11-23T00:52:31.582Z,1.50
2023-11-23T00:55:01.197Z,1.60
2023-11-23T00:57:29.248Z,1.30
2023-11-23T00:59:57.603Z,1.13
2023-11-23T01:02:25.788Z,1.10
2023-11-23T01:04:53.964Z,1.40
2023-11-23T01:07:22.333Z,1.30
2023-11-23T01:09:50.359Z,1.00
2023-11-23T01:12:19.821Z,1.30
2023-11-23T01:14:47.903Z,1.33
2023-11-23T01:17:16.095Z,1.20
2023-11-23T01:19:44.146Z,1.40
2023-11-23T01:22:12.238Z,1.17
2023-11-23T01:24:40.270Z,1.20
2023-11-23T01:27:08.457Z,1.23
2023-11-23T01:29:37.989Z,1.27
2023-11-23T01:32:06.846Z,1.40
2023-11-23T01:34:34.923Z,1.25
2023-11-23T01:37:03.036Z,1.20
2023-11-23T01:39:31.150Z,1.40
2023-11-23T01:41:59.744Z,1.20
2023-11-23T01:44:28.196Z,1.25
2023-11-23T01:46:59.398Z,1.10
2023-11-23T01:49:29.172Z,1.38
2023-11-23T01:51:57.928Z,1.33
2023-11-23T01:54:26.036Z,1.30
2023-11-23T01:56:54.955Z,1.20
2023-11-23T01:59:23.272Z,1.20
2023-11-23T02:01:52.322Z,1.20
2023-11-23T02:04:21.973Z,1.40
2023-11-23T02:06:50.157Z,1.33
2023-11-23T02:09:19.012Z,1.33
2023-11-23T02:11:47.614Z,1.20
2023-11-23T02:14:16.207Z,1.30
2023-11-23T02:16:45.630Z,1.40
2023-11-23T02:19:13.821Z,1.30
2023-11-23T02:21:44.589Z,1.27
2023-11-23T02:24:14.633Z,1.30
2023-11-23T02:26:42.720Z,1.35
2023-11-23T02:29:10.849Z,1.50
2023-11-23T02:31:40.451Z,1.20
2023-11-23T02:34:08.676Z,1.35
2023-11-23T02:36:36.769Z,1.30
2023-11-23T02:39:05.833Z,1.50
2023-11-23T02:41:35.702Z,1.27
2023-11-23T02:44:03.777Z,1.40
2023-11-23T02:46:31.854Z,1.38
2023-11-23T02:48:59.898Z,1.42
2023-11-23T02:51:27.998Z,1.20
2023-11-23T02:53:58.117Z,1.40
2023-11-23T02:56:26.219Z,1.38
2023-11-23T02:58:55.803Z,1.30
2023-11-23T03:01:24.685Z,1.25
2023-11-23T03:03:56.294Z,1.40
2023-11-23T03:06:24.507Z,1.50
2023-11-23T03:08:53.073Z,1.30
2023-11-23T03:11:21.712Z,1.23
2023-11-23T03:13:50.742Z,1.40
2023-11-23T03:16:20.760Z,1.50
2023-11-23T03:18:49.103Z,1.58
2023-11-23T03:21:17.454Z,1.30
2023-11-23T03:23:46.565Z,1.50
2023-11-23T03:26:15.117Z,1.50
2023-11-23T03:28:43.598Z,1.40
2023-11-23T03:31:11.783Z,1.50
2023-11-23T03:33:42.407Z,1.40
2023-11-23T03:36:15.059Z,1.60
2023-11-23T03:38:43.291Z,1.40
2023-11-23T03:41:11.424Z,1.17
2023-11-23T03:43:39.621Z,1.30
2023-11-23T03:46:07.822Z,1.67
2023-11-23T03:48:36.005Z,1.20
2023-11-23T03:51:05.977Z,1.40
2023-11-23T03:53:34.083Z,1.80
2023-11-23T03:56:02.141Z,1.40
2023-11-23T03:58:30.233Z,1.58
2023-11-23T04:00:58.321Z,1.30
2023-11-23T04:03:26.458Z,1.40
2023-11-23T04:05:55.144Z,1.33
2023-11-23T04:08:24.857Z,1.60
2023-11-23T04:10:53.408Z,1.67
2023-11-23T04:13:22.606Z,1.40
2023-11-23T04:15:50.800Z,1.30
2023-11-23T04:18:19.048Z,1.48
2023-11-23T04:20:47.246Z,1.42
2023-11-23T04:23:15.556Z,1.50
2023-11-23T04:25:45.557Z,1.35
2023-11-23T04:28:14.755Z,1.45
2023-11-23T04:30:42.808Z,1.42
2023-11-23T04:33:11.075Z,1.60
2023-11-23T04:35:39.178Z,1.50
2023-11-23T04:38:07.316Z,1.20
2023-11-23T04:40:35.366Z,1.33
2023-11-23T04:43:06.331Z,1.55
2023-11-23T04:45:34.455Z,1.80
2023-11-23T04:48:02.670Z,1.45
2023-11-23T04:50:30.918Z,1.65
2023-11-23T04:52:59.276Z,1.25
2023-11-23T04:55:29.134Z,1.58
2023-11-23T04:57:57.371Z,1.60
2023-11-23T05:00:27.344Z,1.70
2023-11-23T05:02:55.695Z,1.50
2023-11-23T05:05:23.955Z,1.80
2023-11-23T05:07:52.072Z,1.45
2023-11-23T05:10:21.009Z,1.60
2023-11-23T05:12:49.128Z,1.75
2023-11-23T05:15:18.179Z,1.70
2023-11-23T05:17:47.893Z,1.75
2023-11-23T05:20:16.292Z,1.92
2023-11-23T05:22:46.883Z,1.42
2023-11-23T05:25:15.876Z,1.58
2023-11-23T05:27:43.989Z,1.27
2023-11-23T05:30:13.148Z,1.80
2023-11-23T05:32:41.627Z,1.30
2023-11-23T05:35:11.531Z,1.35
2023-11-23T05:37:39.657Z,1.80
2023-11-23T05:40:10.186Z,1.65
2023-11-23T05:42:40.432Z,1.77
2023-11-23T05:45:09.634Z,1.48
2023-11-23T05:47:38.102Z,1.40
2023-11-23T05:50:07.695Z,1.42
2023-11-23T05:52:37.194Z,1.58
2023-11-23T05:55:05.965Z,1.60
2023-11-23T05:57:34.363Z,1.52
2023-11-23T06:00:03.501Z,1.30
2023-11-23T06:02:33.973Z,1.38
2023-11-23T06:05:02.165Z,1.60
2023-11-23T06:07:30.604Z,1.58
2023-11-23T06:10:02.217Z,1.50
2023-11-23T06:12:30.431Z,1.48
2023-11-23T06:14:58.488Z,1.52
2023-11-23T06:17:26.745Z,1.40
2023-11-23T06:19:55.061Z,1.23
2023-11-23T06:22:23.116Z,1.52
2023-11-23T06:24:51.321Z,1.50
2023-11-23T06:27:20.983Z,1.40
2023-11-23T06:29:49.359Z,1.58
2023-11-23T06:32:18.255Z,1.50
2023-11-23T06:34:46.418Z,1.15
2023-11-23T06:37:14.489Z,1.17
2023-11-23T06:39:43.349Z,1.33
2023-11-23T06:42:11.874Z,1.20
2023-11-23T06:44:41.688Z,1.58
2023-11-23T06:47:09.891Z,1.35
2023-11-23T06:49:38.619Z,1.30
2023-11-23T06:52:07.775Z,1.42
2023-11-23T06:54:36.031Z,1.40
2023-11-23T06:57:04.545Z,1.38
2023-11-23T06:59:34.685Z,1.40
2023-11-23T07:02:05.006Z,1.20
2023-11-23T07:04:33.434Z,1.30
2023-11-23T07:07:03.328Z,1.40
2023-11-23T07:09:31.557Z,1.63
2023-11-23T07:11:59.938Z,1.30
2023-11-23T07:14:28.088Z,1.40
2023-11-23T07:16:57.620Z,1.25
2023-11-23T07:19:27.736Z,1.20
2023-11-23T07:21:55.980Z,1.42
2023-11-23T07:24:24.136Z,1.40
2023-11-23T07:26:52.306Z,1.33
2023-11-23T07:29:20.483Z,1.50
2023-11-23T07:31:50.007Z,1.40
2023-11-23T07:34:18.138Z,1.23
2023-11-23T07:36:47.840Z,1.40
2023-11-23T07:39:18.031Z,1.30
2023-11-23T07:41:47.440Z,1.40
2023-11-23T07:44:15.636Z,1.15
2023-11-23T07:46:44.058Z,1.30
2023-11-23T07:49:12.228Z,1.15
2023-11-23T07:51:40.376Z,1.20
2023-11-23T07:54:10.555Z,1.20
2023-11-23T07:56:38.750Z,1.58
2023-11-23T07:59:06.937Z,1.40
2023-11-23T08:01:35.250Z,1.38
2023-11-23T08:04:04.635Z,1.25
2023-11-23T08:06:33.437Z,1.38
2023-11-23T08:09:01.745Z,1.30
2023-11-23T08:11:31.432Z,1.60
2023-11-23T08:13:59.515Z,1.10
2023-11-23T08:16:27.641Z,1.15
2023-11-23T08:18:57.002Z,1.15
2023-11-23T08:21:25.270Z,1.33
2023-11-23T08:23:53.499Z,1.30
2023-11-23T08:26:22.459Z,1.50
2023-11-23T08:28:51.869Z,1.27
2023-11-23T08:31:20.413Z,1.17
2023-11-23T08:33:48.572Z,1.55
2023-11-23T08:36:16.783Z,1.10
2023-11-23T08:38:45.251Z,1.30
2023-11-23T08:41:13.358Z,1.30
2023-11-23T08:43:41.530Z,1.60
2023-11-23T08:46:11.233Z,1.20
2023-11-23T08:48:39.601Z,1.20
2023-11-23T08:51:08.491Z,1.27
2023-11-23T08:53:36.685Z,1.20
2023-11-23T08:56:04.895Z,1.40
2023-11-23T08:58:33.095Z,1.40
2023-11-23T09:01:01.419Z,1.25
2023-11-23T09:03:31.289Z,1.20
2023-11-23T09:06:00.357Z,1.27
2023-11-23T09:08:28.726Z,1.40
2023-11-23T09:10:57.248Z,1.20
2023-11-23T09:13:26.876Z,1.25
2023-11-23T09:15:55.617Z,1.30
2023-11-23T09:18:24.297Z,1.25
2023-11-23T09:21:48.496Z,1.30
2023-11-23T09:24:16.831Z,1.17
2023-11-23T09:26:47.638Z,1.17
2023-11-23T09:29:15.903Z,1.40
2023-11-23T09:31:44.088Z,1.30
2023-11-23T09:34:12.317Z,1.08
2023-11-23T09:36:41.264Z,1.15
2023-11-23T09:39:15.395Z,1.23
2023-11-23T09:41:45.019Z,1.00
2023-11-23T09:44:13.265Z,1.00
2023-11-23T09:46:44.351Z,1.20
2023-11-23T09:49:14.973Z,1.20
2023-11-23T09:51:43.585Z,1.38
2023-11-23T09:54:18.770Z,1.20
2023-11-23T09:56:48.170Z,1.27
2023-11-23T09:59:17.463Z,1.20
2023-11-23T10:01:49.104Z,1.10
2023-11-23T10:04:17.980Z,1.20
2023-11-23T10:06:46.167Z,1.30
2023-11-23T10:09:18.637Z,1.30
2023-11-23T10:11:48.415Z,1.15
2023-11-23T10:14:17.162Z,1.38
2023-11-23T10:16:45.397Z,1.20
2023-11-23T10:19:21.750Z,1.20
2023-11-23T10:21:49.943Z,1.27
2023-11-23T10:24:20.161Z,1.23
2023-11-23T10:26:48.437Z,1.20
2023-11-23T10:29:16.540Z,1.10
2023-11-23T10:31:44.655Z,1.10
2023-11-23T10:34:13.601Z,1.13
2023-11-23T10:36:42.906Z,1.10
2023-11-23T10:39:14.112Z,1.20
2023-11-23T10:41:45.773Z,1.20
2023-11-23T10:44:14.424Z,1.20
2023-11-23T10:46:44.064Z,1.10
2023-11-23T10:49:14.788Z,1.13
2023-11-23T10:51:44.932Z,1.00
2023-11-23T10:54:13.133Z,0.90
2023-11-23T10:56:44.445Z,1.20
2023-11-23T10:59:21.310Z,1.02
2023-11-23T11:01:51.125Z,1.05
2023-11-23T11:04:19.344Z,1.08
2023-11-23T11:06:48.615Z,0.93
2023-11-23T11:09:18.481Z,1.20
2023-11-23T11:11:55.640Z,1.10
2023-11-23T11:14:32.776Z,1.10
2023-11-23T11:17:05.441Z,1.00
2023-11-23T11:19:45.467Z,1.15
2023-11-23T11:22:15.050Z,1.10
2023-11-23T11:24:45.851Z,1.20
2023-11-23T11:27:15.527Z,1.00
2023-11-23T11:29:52.450Z,1.00
2023-11-23T11:32:22.976Z,0.90
2023-11-23T11:35:03.438Z,0.85
2023-11-23T11:37:34.289Z,0.82
2023-11-23T11:40:02.694Z,0.90
2023-11-23T11:42:34.136Z,0.80
2023-11-23T11:45:05.749Z,1.00
2023-11-23T11:47:35.143Z,0.98
2023-11-23T11:50:03.933Z,1.00
2023-11-23T11:52:32.163Z,1.08
2023-11-23T11:55:00.379Z,1.17
2023-11-23T11:57:28.561Z,1.10
2023-11-23T12:00:00.320Z,0.93
2023-11-23T12:02:28.535Z,0.80
2023-11-23T12:04:59.778Z,0.85
2023-11-23T12:07:27.968Z,1.00
2023-11-23T12:09:57.077Z,0.90
2023-11-23T12:12:26.352Z,0.77
2023-11-23T12:14:58.487Z,0.90
2023-11-23T12:17:26.653Z,0.85
2023-11-23T12:19:56.293Z,0.80
2023-11-23T12:22:26.553Z,1.02
2023-11-23T12:24:55.329Z,0.95
2023-11-23T12:27:26.197Z,0.80
2023-11-23T12:29:54.973Z,0.82
2023-11-23T12:32:25.177Z,0.90
2023-11-23T12:34:53.284Z,0.90
2023-11-23T12:37:21.954Z,1.00
2023-11-23T12:39:50.810Z,0.88
2023-11-23T12:42:19.127Z,0.90
2023-11-23T12:44:47.625Z,1.00
2023-11-23T12:47:16.113Z,0.80
2023-11-23T12:49:45.632Z,0.90
2023-11-23T12:52:13.783Z,1.10
2023-11-23T12:54:43.556Z,0.73
2023-11-23T12:57:13.204Z,0.80
2023-11-23T12:59:41.410Z,0.77
2023-11-23T13:02:09.761Z,0.93
2023-11-23T13:04:38.628Z,1.10
2023-11-23T13:07:08.374Z,0.90
2023-11-23T13:09:36.513Z,0.80
2023-11-23T13:12:05.747Z,0.80
2023-11-23T13:14:34.217Z,0.70
2023-11-23T13:17:03.897Z,0.90
2023-11-23T13:19:37.657Z,0.80
2023-11-23T13:22:13.373Z,0.82
2023-11-23T13:24:41.587Z,0.80
2023-11-23T13:27:10.148Z,0.70
2023-11-23T13:29:38.968Z,0.70
2023-11-23T13:32:08.006Z,0.70
2023-11-23T13:34:37.420Z,0.80
2023-11-23T13:37:06.586Z,0.77
2023-11-23T13:39:37.558Z,0.82
2023-11-23T13:42:06.801Z,0.60
2023-11-23T13:44:35.347Z,0.82
2023-11-23T13:47:08.169Z,0.70
2023-11-23T13:49:36.360Z,0.80
2023-11-23T13:52:05.338Z,0.63
2023-11-23T13:54:34.979Z,0.70
2023-11-23T14:16:10.384Z,0.80
2023-11-23T14:18:40.572Z,0.80
2023-11-23T14:21:09.232Z,0.80
2023-11-23T14:23:37.458Z,0.70
2023-11-23T14:26:05.573Z,0.50
2023-11-23T14:28:33.653Z,0.70
2023-11-23T14:31:03.377Z,0.77
2023-11-23T14:33:32.897Z,0.80
2023-11-23T14:36:01.327Z,0.70
2023-11-23T14:38:29.367Z,0.63
2023-11-23T14:40:58.884Z,0.70
2023-11-23T14:43:28.983Z,0.73
2023-11-23T14:45:57.612Z,0.70
2023-11-23T14:48:27.071Z,0.80
2023-11-23T14:50:58.539Z,0.77
2023-11-23T14:53:28.520Z,0.90
2023-11-23T14:55:58.789Z,0.80
2023-11-23T14:58:28.892Z,0.73
2023-11-23T15:00:57.395Z,0.80
2023-11-23T15:03:27.256Z,1.00
2023-11-23T15:05:55.390Z,0.80
2023-11-23T15:08:24.859Z,0.85
2023-11-23T15:10:53.881Z,0.70
2023-11-23T15:13:26.420Z,0.60
2023-11-23T15:16:00.908Z,0.70
2023-11-23T15:18:29.241Z,0.63
2023-11-23T15:21:00.481Z,0.60
2023-11-23T15:23:30.720Z,0.70
2023-11-23T15:25:59.439Z,0.70
2023-11-23T15:28:27.539Z,0.60
2023-11-23T15:30:55.767Z,0.68
2023-11-23T15:33:24.081Z,0.85
2023-11-23T15:35:52.790Z,0.93
2023-11-23T15:38:20.947Z,0.70
2023-11-23T15:40:50.423Z,0.90
2023-11-23T15:43:19.869Z,0.80
2023-11-23T15:45:48.189Z,1.02
2023-11-23T15:48:16.464Z,0.80
2023-11-23T15:50:45.377Z,0.80
2023-11-23T15:53:14.819Z,0.70
2023-11-23T15:55:43.819Z,0.60
2023-11-23T15:58:13.340Z,0.60
2023-11-23T16:00:41.579Z,0.70
2023-11-23T16:03:09.892Z,0.80
2023-11-23T16:05:38.429Z,0.82
2023-11-23T16:08:06.814Z,0.65
2023-11-23T16:10:35.263Z,0.57
2023-11-23T16:13:03.331Z,0.60
2023-11-23T16:15:32.838Z,0.50
2023-11-23T16:18:02.041Z,0.60
2023-11-23T16:20:30.730Z,0.60
2023-11-23T16:23:02.379Z,0.60
2023-11-23T16:25:30.451Z,0.65
2023-11-23T16:27:59.205Z,0.50
2023-11-23T16:30:27.590Z,0.63
2023-11-23T16:32:57.127Z,0.60
2023-11-23T16:35:27.624Z,0.60
2023-11-23T16:37:56.699Z,0.70
2023-11-23T16:40:24.780Z,0.60
2023-11-23T16:42:54.378Z,0.50
2023-11-23T16:45:22.709Z,1.02
2023-11-23T16:47:54.278Z,0.50
2023-11-23T16:50:24.354Z,0.60
2023-11-23T16:52:52.742Z,0.60
2023-11-23T16:55:20.851Z,0.50
2023-11-23T16:57:51.729Z,0.77
2023-11-23T17:00:20.522Z,0.50
2023-11-23T17:02:48.987Z,0.60
2023-11-23T17:05:17.240Z,0.63
2023-11-23T17:07:47.284Z,0.50
2023-11-23T17:10:15.814Z,0.50
2023-11-23T17:12:45.202Z,0.50
2023-11-23T17:15:13.896Z,0.50
2023-11-23T17:17:46.588Z,0.50
2023-11-23T17:20:16.725Z,0.50
2023-11-23T17:22:48.705Z,0.75
2023-11-23T17:25:16.823Z,0.50
2023-11-23T17:27:48.728Z,0.60
2023-11-23T17:30:17.580Z,0.50
2023-11-23T17:32:45.829Z,0.60
2023-11-23T17:35:14.128Z,0.50
2023-11-23T17:37:42.400Z,0.55
2023-11-23T17:40:13.913Z,0.60
2023-11-23T17:42:43.003Z,0.50
2023-11-23T17:45:11.707Z,0.52
2023-11-23T17:47:40.120Z,0.50
2023-11-23T17:50:10.675Z,0.60
2023-11-23T17:52:38.932Z,0.70
2023-11-23T17:55:08.940Z,0.77
2023-11-23T17:57:39.126Z,0.70
2023-11-23T18:00:13.434Z,0.68
2023-11-23T18:02:42.482Z,0.60
2023-11-23T18:05:14.055Z,0.52
2023-11-23T18:07:42.770Z,0.52
2023-11-23T18:10:13.457Z,0.50
2023-11-23T18:12:43.263Z,0.50
2023-11-23T18:15:12.761Z,0.50
2023-11-23T18:17:41.028Z,0.60
2023-11-23T18:20:12.394Z,0.50
2023-11-23T18:22:40.596Z,0.52
2023-11-23T18:25:09.210Z,0.60
2023-11-23T18:27:37.473Z,0.50
2023-11-23T18:30:09.056Z,0.50
2023-11-23T18:32:37.227Z,0.60
2023-11-23T18:35:05.894Z,0.50
2023-11-23T18:37:34.470Z,0.60
2023-11-23T18:40:13.930Z,0.50
2023-11-23T18:42:43.445Z,0.63
2023-11-23T18:45:15.941Z,0.60
2023-11-23T18:47:44.171Z,0.90
2023-11-23T18:50:14.714Z,0.50
2023-11-23T18:52:43.483Z,0.50
2023-11-23T18:55:11.998Z,0.60
2023-11-23T18:57:40.265Z,0.75
2023-11-23T19:00:10.313Z,0.55
2023-11-23T19:02:41.757Z,0.50
2023-11-23T19:05:14.725Z,0.50
2023-11-23T19:07:43.606Z,0.50
2023-11-23T19:10:12.795Z,0.50
2023-11-23T19:12:42.864Z,0.50
2023-11-23T19:15:11.671Z,0.50
2023-11-23T19:17:44.105Z,0.50
2023-11-23T19:20:14.208Z,0.50
2023-11-23T19:22:43.032Z,0.50
2023-11-23T19:25:12.161Z,0.55
2023-11-23T19:27:40.838Z,0.50
2023-11-23T19:30:10.411Z,0.60
2023-11-23T19:32:39.410Z,0.60
2023-11-23T19:35:12.963Z,0.55
2023-11-23T19:37:41.779Z,0.45
2023-11-23T19:40:11.375Z,0.45
2023-11-23T19:42:42.276Z,0.50
2023-11-23T19:45:12.718Z,0.50
2023-11-23T19:47:41.427Z,0.50
2023-11-23T19:50:12.700Z,0.60
2023-11-23T19:52:44.603Z,0.75
2023-11-23T19:55:13.242Z,0.60
2023-11-23T19:57:42.069Z,0.60
2023-11-23T20:00:12.434Z,0.47
2023-11-23T20:02:41.662Z,0.60
2023-11-23T20:05:11.885Z,0.95
2023-11-23T20:07:40.069Z,0.60
2023-11-23T20:10:09.088Z,0.52
2023-11-23T20:12:37.612Z,0.60
2023-11-23T20:15:07.944Z,0.50
2023-11-23T20:17:36.118Z,0.50
2023-11-23T20:20:06.140Z,0.52
2023-11-23T20:22:35.649Z,0.60
2023-11-23T20:25:04.902Z,0.50
2023-11-23T20:27:33.020Z,0.50
2023-11-23T20:30:01.344Z,0.55
2023-11-23T20:32:29.692Z,0.50
2023-11-23T20:34:57.935Z,0.50
2023-11-23T20:37:26.241Z,0.40
2023-11-23T20:39:55.753Z,0.40
2023-11-23T20:42:23.997Z,0.50
2023-11-23T20:44:52.282Z,0.43
2023-11-23T20:47:20.649Z,0.47
2023-11-23T20:49:49.010Z,0.45
2023-11-23T20:52:17.221Z,0.50
2023-11-23T20:54:45.384Z,0.50
2023-11-23T20:57:15.618Z,0.40
2023-11-23T20:59:44.514Z,0.50
2023-11-23T21:02:13.326Z,0.50
2023-11-23T21:04:42.123Z,0.50
2023-11-23T21:07:12.061Z,0.40
2023-11-23T21:09:45.282Z,0.60
2023-11-23T21:12:21.628Z,0.45
2023-11-23T21:14:55.424Z,0.60
2023-11-23T21:17:23.545Z,0.40
2023-11-23T21:19:51.616Z,0.73
2023-11-23T21:22:19.835Z,0.57
2023-11-23T21:24:47.986Z,0.50
2023-11-23T21:27:17.618Z,0.60
2023-11-23T21:29:47.376Z,0.60
2023-11-23T21:32:16.760Z,0.40
2023-11-23T21:34:45.509Z,0.50
2023-11-23T21:37:13.671Z,0.43
2023-11-23T21:39:41.938Z,0.52
2023-11-23T21:42:10.304Z,0.50
2023-11-23T21:44:40.345Z,0.40
2023-11-23T21:47:09.835Z,0.60
2023-11-23T21:49:41.066Z,0.70
2023-11-23T21:52:09.238Z,0.60
2023-11-23T21:54:42.179Z,0.40
2023-11-23T21:57:15.297Z,0.60
2023-11-23T21:59:44.839Z,0.60
2023-11-23T22:02:13.044Z,0.57
2023-11-23T22:04:43.893Z,0.60
2023-11-23T22:07:12.238Z,0.45
2023-11-23T22:09:40.324Z,0.60
2023-11-23T22:12:08.797Z,0.60
2023-11-23T22:14:39.372Z,0.60
2023-11-23T22:17:10.127Z,0.70
2023-11-23T22:19:41.674Z,0.60
2023-11-23T22:22:10.978Z,0.50
2023-11-23T22:24:39.674Z,0.75
2023-11-23T22:27:08.614Z,0.60
2023-11-23T22:29:36.788Z,0.60
2023-11-23T22:32:05.786Z,0.40
2023-11-23T22:34:36.640Z,0.47
2023-11-23T22:37:05.700Z,0.50
2023-11-23T22:39:34.682Z,0.50
2023-11-23T22:42:03.414Z,0.50
2023-11-23T22:44:31.998Z,0.60
2023-11-23T22:47:00.758Z,0.40
2023-11-23T22:49:28.980Z,0.63
2023-11-23T22:51:58.693Z,0.55
2023-11-23T22:54:27.211Z,0.70
2023-11-23T22:56:55.374Z,0.60
2023-11-23T22:59:23.473Z,0.70
2023-11-23T23:01:51.725Z,0.60
2023-11-23T23:04:21.882Z,0.52
2023-11-23T23:06:50.052Z,0.40
2023-11-23T23:09:22.239Z,0.50
2023-11-23T23:11:51.655Z,0.60
2023-11-23T23:14:20.044Z,0.60
2023-11-23T23:16:48.139Z,0.60
2023-11-23T23:19:16.332Z,0.70
2023-11-23T23:21:45.714Z,0.88
2023-11-23T23:24:14.172Z,0.57
2023-11-23T23:26:44.020Z,0.70
2023-11-23T23:29:13.053Z,0.52
2023-11-23T23:31:42.860Z,0.60
2023-11-23T23:34:11.534Z,0.65
2023-11-23T23:36:39.785Z,0.70
2023-11-23T23:39:08.851Z,0.60
2023-11-23T23:41:38.323Z,0.65
2023-11-23T23:44:08.324Z,0.50
2023-11-23T23:46:36.441Z,0.50
2023-11-23T23:49:04.565Z,0.50
2023-11-23T23:51:33.162Z,0.57
2023-11-23T23:54:01.460Z,0.70
2023-11-23T23:56:29.562Z,0.60
2023-11-23T23:58:57.686Z,0.60
